sensor_id;sensor_type;location;lat;lon;timestamp;temperature;humidity
36292;DHT22;22327;51.208;6.418;2023-11-21T00:00:29;11.50;99.90
36292;DHT22;22327;51.208;6.418;2023-11-21T00:03:30;11.40;99.90
36292;DHT22;22327;51.208;6.418;2023-11-21T00:06:31;11.40;99.90
36292;DHT22;22327;51.208;6.418;2023-11-21T00:09:34;11.40;99.90
36292;DHT22;22327;51.208;6.418;2023-11-21T00:12:37;11.40;99.90
36292;DHT22;22327;51.208;6.418;2023-11-21T00:15:37;11.30;99.90
36292;DHT22;22327;51.208;6.418;2023-11-21T00:18:38;11.20;99.90
36292;DHT22;22327;51.208;6.418;2023-11-21T00:21:39;11.30;99.90
36292;DHT22;22327;51.208;6.418;2023-11-21T00:24:39;11.30;99.90
36292;DHT22;22327;51.208;6.418;2023-11-21T00:27:41;11.30;99.90
36292;DHT22;22327;51.208;6.418;2023-11-21T00:30:41;11.30;99.90
36292;DHT22;22327;51.208;6.418;2023-11-21T00:33:42;11.40;99.90
36292;DHT22;22327;51.208;6.418;2023-11-21T00:36:43;11.40;99.90
36292;DHT22;22327;51.208;6.418;2023-11-21T00:39:44;11.60;99.90
36292;DHT22;22327;51.208;6.418;2023-11-21T00:42:44;11.60;99.90
36292;DHT22;22327;51.208;6.418;2023-11-21T00:45:45;11.70;99.90
36292;DHT22;22327;51.208;6.418;2023-11-21T00:48:45;11.90;99.90
36292;DHT22;22327;51.208;6.418;2023-11-21T00:51:46;12.00;99.90
36292;DHT22;22327;51.208;6.418;2023-11-21T00:54:46;12.10;99.90
36292;DHT22;22327;51.208;6.418;2023-11-21T00:57:48;12.20;99.90
36292;DHT22;22327;51.208;6.418;2023-11-21T01:00:49;12.30;99.90
36292;DHT22;22327;51.208;6.418;2023-11-21T01:03:49;12.30;99.90
36292;DHT22;22327;51.208;6.418;2023-11-21T01:06:50;12.40;99.90
36292;DHT22;22327;51.208;6.418;2023-11-21T01:09:50;12.40;99.90
36292;DHT22;22327;51.208;6.418;2023-11-21T01:12:51;12.40;99.90
36292;DHT22;22327;51.208;6.418;2023-11-21T01:15:51;12.30;99.90
36292;DHT22;22327;51.208;6.418;2023-11-21T01:18:52;12.40;99.90
36292;DHT22;22327;51.208;6.418;2023-11-21T01:21:53;12.40;99.90
36292;DHT22;22327;51.208;6.418;2023-11-21T01:24:53;12.40;99.90
36292;DHT22;22327;51.208;6.418;2023-11-21T01:27:54;12.40;99.90
36292;DHT22;22327;51.208;6.418;2023-11-21T01:30:54;12.40;99.90
36292;DHT22;22327;51.208;6.418;2023-11-21T01:33:56;12.40;99.90
36292;DHT22;22327;51.208;6.418;2023-11-21T01:36:57;12.50;99.90
36292;DHT22;22327;51.208;6.418;2023-11-21T01:39:58;12.40;99.90
36292;DHT22;22327;51.208;6.418;2023-11-21T01:42:59;12.30;99.90
36292;DHT22;22327;51.208;6.418;2023-11-21T01:46:00;12.30;99.90
36292;DHT22;22327;51.208;6.418;2023-11-21T01:49:00;12.30;99.90
36292;DHT22;22327;51.208;6.418;2023-11-21T01:52:01;12.30;99.90
36292;DHT22;22327;51.208;6.418;2023-11-21T01:55:03;12.30;99.90
36292;DHT22;22327;51.208;6.418;2023-11-21T01:58:05;12.30;99.90
36292;DHT22;22327;51.208;6.418;2023-11-21T02:01:05;12.30;99.90
36292;DHT22;22327;51.208;6.418;2023-11-21T02:04:06;12.40;99.90
36292;DHT22;22327;51.208;6.418;2023-11-21T02:07:08;12.40;99.90
36292;DHT22;22327;51.208;6.418;2023-11-21T02:10:09;12.40;99.90
36292;DHT22;22327;51.208;6.418;2023-11-21T02:13:10;12.50;99.90
36292;DHT22;22327;51.208;6.418;2023-11-21T02:16:11;12.50;99.90
36292;DHT22;22327;51.208;6.418;2023-11-21T02:19:17;12.50;99.90
36292;DHT22;22327;51.208;6.418;2023-11-21T02:22:19;12.50;99.90
36292;DHT22;22327;51.208;6.418;2023-11-21T02:25:20;12.60;99.90
36292;DHT22;22327;51.208;6.418;2023-11-21T02:28:21;12.60;99.90
36292;DHT22;22327;51.208;6.418;2023-11-21T02:31:25;12.60;99.90
36292;DHT22;22327;51.208;6.418;2023-11-21T02:34:27;12.60;99.90
36292;DHT22;22327;51.208;6.418;2023-11-21T02:37:27;12.60;99.90
36292;DHT22;22327;51.208;6.418;2023-11-21T02:40:28;12.60;99.90
36292;DHT22;22327;51.208;6.418;2023-11-21T02:43:29;12.60;99.90
36292;DHT22;22327;51.208;6.418;2023-11-21T02:46:30;12.50;99.90
36292;DHT22;22327;51.208;6.418;2023-11-21T02:49:33;12.50;99.90
36292;DHT22;22327;51.208;6.418;2023-11-21T02:52:36;12.60;99.90
36292;DHT22;22327;51.208;6.418;2023-11-21T02:55:37;12.60;99.90
36292;DHT22;22327;51.208;6.418;2023-11-21T02:58:37;12.70;99.90
36292;DHT22;22327;51.208;6.418;2023-11-21T03:01:38;12.70;99.90
36292;DHT22;22327;51.208;6.418;2023-11-21T03:04:38;12.80;99.90
36292;DHT22;22327;51.208;6.418;2023-11-21T03:07:39;12.80;99.90
36292;DHT22;22327;51.208;6.418;2023-11-21T03:10:40;12.80;99.90
36292;DHT22;22327;51.208;6.418;2023-11-21T03:13:41;12.80;99.90
36292;DHT22;22327;51.208;6.418;2023-11-21T03:16:41;12.70;99.90
36292;DHT22;22327;51.208;6.418;2023-11-21T03:19:42;12.70;99.90
36292;DHT22;22327;51.208;6.418;2023-11-21T03:22:43;12.60;99.90
36292;DHT22;22327;51.208;6.418;2023-11-21T03:25:43;12.60;99.90
36292;DHT22;22327;51.208;6.418;2023-11-21T03:28:44;12.60;99.90
36292;DHT22;22327;51.208;6.418;2023-11-21T03:31:44;12.60;99.90
36292;DHT22;22327;51.208;6.418;2023-11-21T03:34:56;12.60;99.90
36292;DHT22;22327;51.208;6.418;2023-11-21T03:37:56;12.60;99.90
36292;DHT22;22327;51.208;6.418;2023-11-21T03:40:57;12.50;99.90
36292;DHT22;22327;51.208;6.418;2023-11-21T03:43:57;12.50;99.90
36292;DHT22;22327;51.208;6.418;2023-11-21T03:46:58;12.50;99.90
36292;DHT22;22327;51.208;6.418;2023-11-21T03:49:58;12.50;99.90
36292;DHT22;22327;51.208;6.418;2023-11-21T03:52:59;12.50;99.90
36292;DHT22;22327;51.208;6.418;2023-11-21T03:56:02;12.50;99.90
36292;DHT22;22327;51.208;6.418;2023-11-21T03:59:03;12.50;99.90
36292;DHT22;22327;51.208;6.418;2023-11-21T04:02:03;12.50;99.90
36292;DHT22;22327;51.208;6.418;2023-11-21T04:05:04;12.60;99.90
36292;DHT22;22327;51.208;6.418;2023-11-21T04:08:05;12.60;99.90
36292;DHT22;22327;51.208;6.418;2023-11-21T04:11:05;12.50;99.90
36292;DHT22;22327;51.208;6.418;2023-11-21T04:14:06;12.40;99.90
36292;DHT22;22327;51.208;6.418;2023-11-21T04:17:07;12.40;99.90
36292;DHT22;22327;51.208;6.418;2023-11-21T04:20:08;12.40;99.90
36292;DHT22;22327;51.208;6.418;2023-11-21T04:23:09;12.40;99.90
36292;DHT22;22327;51.208;6.418;2023-11-21T04:26:10;12.50;99.90
36292;DHT22;22327;51.208;6.418;2023-11-21T04:29:11;12.60;99.90
36292;DHT22;22327;51.208;6.418;2023-11-21T04:32:12;12.70;99.90
36292;DHT22;22327;51.208;6.418;2023-11-21T04:35:13;12.70;99.90
36292;DHT22;22327;51.208;6.418;2023-11-21T04:38:13;12.80;99.90
36292;DHT22;22327;51.208;6.418;2023-11-21T04:41:14;12.80;99.90
36292;DHT22;22327;51.208;6.418;2023-11-21T04:44:14;12.80;99.90
36292;DHT22;22327;51.208;6.418;2023-11-21T04:47:16;12.70;99.90
36292;DHT22;22327;51.208;6.418;2023-11-21T04:50:19;12.70;99.90
36292;DHT22;22327;51.208;6.418;2023-11-21T04:53:20;12.70;99.90
36292;DHT22;22327;51.208;6.418;2023-11-21T04:56:21;12.60;99.90
36292;DHT22;22327;51.208;6.418;2023-11-21T04:59:22;12.50;99.90
36292;DHT22;22327;51.208;6.418;2023-11-21T05:02:25;12.50;99.90
36292;DHT22;22327;51.208;6.418;2023-11-21T05:05:25;12.50;99.90
36292;DHT22;22327;51.208;6.418;2023-11-21T05:08:26;12.40;99.90
36292;DHT22;22327;51.208;6.418;2023-11-21T05:11:27;12.40;99.90
36292;DHT22;22327;51.208;6.418;2023-11-21T05:14:27;12.30;99.90
36292;DHT22;22327;51.208;6.418;2023-11-21T05:17:28;12.20;99.90
36292;DHT22;22327;51.208;6.418;2023-11-21T05:20:29;12.20;99.90
36292;DHT22;22327;51.208;6.418;2023-11-21T05:23:30;12.20;99.90
36292;DHT22;22327;51.208;6.418;2023-11-21T05:26:30;12.10;99.90
36292;DHT22;22327;51.208;6.418;2023-11-21T05:29:31;12.20;99.90
36292;DHT22;22327;51.208;6.418;2023-11-21T05:32:32;12.10;99.90
36292;DHT22;22327;51.208;6.418;2023-11-21T05:35:33;12.10;99.90
36292;DHT22;22327;51.208;6.418;2023-11-21T05:38:34;12.10;99.90
36292;DHT22;22327;51.208;6.418;2023-11-21T05:41:35;12.10;99.90
36292;DHT22;22327;51.208;6.418;2023-11-21T05:44:36;12.20;99.90
36292;DHT22;22327;51.208;6.418;2023-11-21T05:47:42;12.20;99.90
36292;DHT22;22327;51.208;6.418;2023-11-21T05:50:43;12.30;99.90
36292;DHT22;22327;51.208;6.418;2023-11-21T05:53:43;12.20;99.90
36292;DHT22;22327;51.208;6.418;2023-11-21T05:56:44;12.20;99.90
36292;DHT22;22327;51.208;6.418;2023-11-21T05:59:44;12.10;99.90
36292;DHT22;22327;51.208;6.418;2023-11-21T06:02:49;12.10;99.90
36292;DHT22;22327;51.208;6.418;2023-11-21T06:05:50;12.20;99.90
36292;DHT22;22327;51.208;6.418;2023-11-21T06:08:51;12.20;99.90
36292;DHT22;22327;51.208;6.418;2023-11-21T06:11:52;12.20;99.90
36292;DHT22;22327;51.208;6.418;2023-11-21T06:14:52;12.20;99.90
36292;DHT22;22327;51.208;6.418;2023-11-21T06:17:53;12.10;99.90
36292;DHT22;22327;51.208;6.418;2023-11-21T06:20:54;12.10;99.90
36292;DHT22;22327;51.208;6.418;2023-11-21T06:23:54;12.10;99.90
36292;DHT22;22327;51.208;6.418;2023-11-21T06:26:57;12.10;99.90
36292;DHT22;22327;51.208;6.418;2023-11-21T06:29:58;12.20;99.90
36292;DHT22;22327;51.208;6.418;2023-11-21T06:32:58;12.20;99.90
36292;DHT22;22327;51.208;6.418;2023-11-21T06:36:00;12.30;99.90
36292;DHT22;22327;51.208;6.418;2023-11-21T06:39:03;12.20;99.90
36292;DHT22;22327;51.208;6.418;2023-11-21T06:42:08;12.30;99.90
36292;DHT22;22327;51.208;6.418;2023-11-21T06:45:09;12.20;99.90
36292;DHT22;22327;51.208;6.418;2023-11-21T06:48:11;12.20;99.90
36292;DHT22;22327;51.208;6.418;2023-11-21T06:51:11;12.30;99.90
36292;DHT22;22327;51.208;6.418;2023-11-21T06:54:13;12.40;99.90
36292;DHT22;22327;51.208;6.418;2023-11-21T06:57:14;12.40;99.90
36292;DHT22;22327;51.208;6.418;2023-11-21T07:00:16;12.30;99.90
36292;DHT22;22327;51.208;6.418;2023-11-21T07:03:18;12.30;99.90
36292;DHT22;22327;51.208;6.418;2023-11-21T07:06:19;12.30;99.90
36292;DHT22;22327;51.208;6.418;2023-11-21T07:09:20;12.20;99.90
36292;DHT22;22327;51.208;6.418;2023-11-21T07:12:22;12.30;99.90
36292;DHT22;22327;51.208;6.418;2023-11-21T07:15:24;12.20;99.90
36292;DHT22;22327;51.208;6.418;2023-11-21T07:18:26;12.20;99.90
36292;DHT22;22327;51.208;6.418;2023-11-21T07:21:26;12.20;99.90
36292;DHT22;22327;51.208;6.418;2023-11-21T07:24:27;12.20;99.90
36292;DHT22;22327;51.208;6.418;2023-11-21T07:27:27;12.20;99.90
36292;DHT22;22327;51.208;6.418;2023-11-21T07:30:28;12.10;99.90
36292;DHT22;22327;51.208;6.418;2023-11-21T07:33:29;12.20;99.90
36292;DHT22;22327;51.208;6.418;2023-11-21T07:36:30;12.30;99.90
36292;DHT22;22327;51.208;6.418;2023-11-21T07:39:30;12.30;99.90
36292;DHT22;22327;51.208;6.418;2023-11-21T07:42:31;12.30;99.90
36292;DHT22;22327;51.208;6.418;2023-11-21T07:45:31;12.30;99.90
36292;DHT22;22327;51.208;6.418;2023-11-21T07:48:32;12.40;99.90
36292;DHT22;22327;51.208;6.418;2023-11-21T07:51:33;12.60;99.90
36292;DHT22;22327;51.208;6.418;2023-11-21T07:54:33;12.60;99.90
36292;DHT22;22327;51.208;6.418;2023-11-21T07:57:36;12.60;99.90
36292;DHT22;22327;51.208;6.418;2023-11-21T08:00:36;12.60;99.90
36292;DHT22;22327;51.208;6.418;2023-11-21T08:03:38;12.60;99.90
36292;DHT22;22327;51.208;6.418;2023-11-21T08:06:38;12.70;99.90
36292;DHT22;22327;51.208;6.418;2023-11-21T08:09:39;12.80;99.90
36292;DHT22;22327;51.208;6.418;2023-11-21T08:12:39;12.80;99.90
36292;DHT22;22327;51.208;6.418;2023-11-21T08:15:40;12.80;99.90
36292;DHT22;22327;51.208;6.418;2023-11-21T08:18:41;12.90;99.90
36292;DHT22;22327;51.208;6.418;2023-11-21T08:21:43;13.00;99.90
36292;DHT22;22327;51.208;6.418;2023-11-21T08:24:44;13.10;99.90
36292;DHT22;22327;51.208;6.418;2023-11-21T08:27:45;13.10;99.90
36292;DHT22;22327;51.208;6.418;2023-11-21T08:30:45;13.20;99.90
36292;DHT22;22327;51.208;6.418;2023-11-21T08:33:46;13.30;99.90
36292;DHT22;22327;51.208;6.418;2023-11-21T08:36:46;13.40;99.90
36292;DHT22;22327;51.208;6.418;2023-11-21T08:39:47;13.50;99.90
36292;DHT22;22327;51.208;6.418;2023-11-21T08:42:48;13.60;99.90
36292;DHT22;22327;51.208;6.418;2023-11-21T08:45:49;13.60;99.90
36292;DHT22;22327;51.208;6.418;2023-11-21T08:48:49;13.60;99.90
36292;DHT22;22327;51.208;6.418;2023-11-21T08:51:53;13.60;99.90
36292;DHT22;22327;51.208;6.418;2023-11-21T08:54:55;13.70;99.90
36292;DHT22;22327;51.208;6.418;2023-11-21T08:58:03;13.90;99.90
36292;DHT22;22327;51.208;6.418;2023-11-21T09:01:05;14.00;99.90
36292;DHT22;22327;51.208;6.418;2023-11-21T09:04:07;13.90;99.90
36292;DHT22;22327;51.208;6.418;2023-11-21T09:07:08;13.90;99.90
36292;DHT22;22327;51.208;6.418;2023-11-21T09:10:10;14.00;99.90
36292;DHT22;22327;51.208;6.418;2023-11-21T09:13:11;14.10;99.90
36292;DHT22;22327;51.208;6.418;2023-11-21T09:16:14;14.10;99.90
36292;DHT22;22327;51.208;6.418;2023-11-21T09:19:15;14.20;99.90
36292;DHT22;22327;51.208;6.418;2023-11-21T09:22:17;14.30;99.90
36292;DHT22;22327;51.208;6.418;2023-11-21T09:25:17;14.40;99.90
36292;DHT22;22327;51.208;6.418;2023-11-21T09:28:19;14.50;99.90
36292;DHT22;22327;51.208;6.418;2023-11-21T09:31:19;14.50;99.90
36292;DHT22;22327;51.208;6.418;2023-11-21T09:34:23;14.50;99.90
36292;DHT22;22327;51.208;6.418;2023-11-21T09:37:23;14.50;99.90
36292;DHT22;22327;51.208;6.418;2023-11-21T09:40:25;14.40;99.90
36292;DHT22;22327;51.208;6.418;2023-11-21T09:43:27;14.40;99.90
36292;DHT22;22327;51.208;6.418;2023-11-21T09:46:28;14.40;99.90
36292;DHT22;22327;51.208;6.418;2023-11-21T09:49:33;14.30;99.90
36292;DHT22;22327;51.208;6.418;2023-11-21T09:52:46;14.40;99.90
36292;DHT22;22327;51.208;6.418;2023-11-21T09:55:53;14.50;99.90
36292;DHT22;22327;51.208;6.418;2023-11-21T09:58:54;14.60;99.90
36292;DHT22;22327;51.208;6.418;2023-11-21T10:01:57;14.60;99.90
36292;DHT22;22327;51.208;6.418;2023-11-21T10:04:59;14.60;99.90
36292;DHT22;22327;51.208;6.418;2023-11-21T10:08:00;14.70;99.90
36292;DHT22;22327;51.208;6.418;2023-11-21T10:11:01;14.70;99.90
36292;DHT22;22327;51.208;6.418;2023-11-21T10:14:02;14.70;99.90
36292;DHT22;22327;51.208;6.418;2023-11-21T10:17:05;14.90;99.90
36292;DHT22;22327;51.208;6.418;2023-11-21T10:20:10;15.10;99.90
36292;DHT22;22327;51.208;6.418;2023-11-21T10:23:12;15.20;99.90
36292;DHT22;22327;51.208;6.418;2023-11-21T10:26:13;15.20;99.90
36292;DHT22;22327;51.208;6.418;2023-11-21T10:29:17;15.20;99.90
36292;DHT22;22327;51.208;6.418;2023-11-21T10:32:18;15.10;99.90
36292;DHT22;22327;51.208;6.418;2023-11-21T10:35:19;15.20;99.90
36292;DHT22;22327;51.208;6.418;2023-11-21T10:38:23;15.20;99.90
36292;DHT22;22327;51.208;6.418;2023-11-21T10:41:24;15.40;99.90
36292;DHT22;22327;51.208;6.418;2023-11-21T10:44:25;15.50;99.90
36292;DHT22;22327;51.208;6.418;2023-11-21T10:47:26;15.60;99.90
36292;DHT22;22327;51.208;6.418;2023-11-21T10:50:27;15.70;99.90
36292;DHT22;22327;51.208;6.418;2023-11-21T10:53:28;15.90;99.90
36292;DHT22;22327;51.208;6.418;2023-11-21T10:56:29;15.90;99.90
36292;DHT22;22327;51.208;6.418;2023-11-21T10:59:31;15.90;99.90
36292;DHT22;22327;51.208;6.418;2023-11-21T11:02:31;15.90;99.90
36292;DHT22;22327;51.208;6.418;2023-11-21T11:05:35;16.10;99.90
36292;DHT22;22327;51.208;6.418;2023-11-21T11:08:37;16.30;99.90
36292;DHT22;22327;51.208;6.418;2023-11-21T11:11:41;16.20;99.90
36292;DHT22;22327;51.208;6.418;2023-11-21T11:14:44;16.30;99.90
36292;DHT22;22327;51.208;6.418;2023-11-21T11:17:45;16.40;99.90
36292;DHT22;22327;51.208;6.418;2023-11-21T11:20:47;16.40;99.90
36292;DHT22;22327;51.208;6.418;2023-11-21T11:33:53;16.50;99.90
36292;DHT22;22327;51.208;6.418;2023-11-21T11:37:05;16.40;99.90
36292;DHT22;22327;51.208;6.418;2023-11-21T11:40:11;16.40;99.90
36292;DHT22;22327;51.208;6.418;2023-11-21T11:43:12;16.40;99.90
36292;DHT22;22327;51.208;6.418;2023-11-21T11:46:12;16.40;99.90
36292;DHT22;22327;51.208;6.418;2023-11-21T11:49:24;16.40;99.90
36292;DHT22;22327;51.208;6.418;2023-11-21T11:52:36;16.50;99.90
36292;DHT22;22327;51.208;6.418;2023-11-21T11:55:36;16.60;99.90
36292;DHT22;22327;51.208;6.418;2023-11-21T11:58:37;16.50;99.90
36292;DHT22;22327;51.208;6.418;2023-11-21T12:01:38;16.60;99.90
36292;DHT22;22327;51.208;6.418;2023-11-21T12:04:45;16.60;99.90
36292;DHT22;22327;51.208;6.418;2023-11-21T12:07:50;16.70;99.90
36292;DHT22;22327;51.208;6.418;2023-11-21T12:10:53;16.70;99.90
36292;DHT22;22327;51.208;6.418;2023-11-21T12:13:54;16.60;99.90
36292;DHT22;22327;51.208;6.418;2023-11-21T12:16:55;16.60;99.90
36292;DHT22;22327;51.208;6.418;2023-11-21T12:20:04;16.60;99.90
36292;DHT22;22327;51.208;6.418;2023-11-21T12:23:07;16.70;99.90
36292;DHT22;22327;51.208;6.418;2023-11-21T12:26:09;16.70;99.90
36292;DHT22;22327;51.208;6.418;2023-11-21T12:29:11;16.70;99.90
36292;DHT22;22327;51.208;6.418;2023-11-21T12:32:11;16.70;99.90
36292;DHT22;22327;51.208;6.418;2023-11-21T12:35:12;16.70;99.90
36292;DHT22;22327;51.208;6.418;2023-11-21T12:38:13;16.80;99.90
36292;DHT22;22327;51.208;6.418;2023-11-21T12:41:16;16.70;99.90
36292;DHT22;22327;51.208;6.418;2023-11-21T12:44:17;16.70;99.90
36292;DHT22;22327;51.208;6.418;2023-11-21T12:47:19;16.50;99.90
36292;DHT22;22327;51.208;6.418;2023-11-21T12:50:25;16.50;99.90
36292;DHT22;22327;51.208;6.418;2023-11-21T12:53:29;16.40;99.90
36292;DHT22;22327;51.208;6.418;2023-11-21T12:56:39;16.20;99.90
36292;DHT22;22327;51.208;6.418;2023-11-21T12:59:40;16.10;99.90
36292;DHT22;22327;51.208;6.418;2023-11-21T13:02:44;16.10;99.90
36292;DHT22;22327;51.208;6.418;2023-11-21T13:05:46;16.10;99.90
36292;DHT22;22327;51.208;6.418;2023-11-21T13:08:49;16.20;99.90
36292;DHT22;22327;51.208;6.418;2023-11-21T13:11:49;16.20;99.90
36292;DHT22;22327;51.208;6.418;2023-11-21T13:14:50;16.20;99.90
36292;DHT22;22327;51.208;6.418;2023-11-21T13:17:51;16.10;99.90
36292;DHT22;22327;51.208;6.418;2023-11-21T13:20:54;16.10;99.90
36292;DHT22;22327;51.208;6.418;2023-11-21T13:23:55;16.10;99.90
36292;DHT22;22327;51.208;6.418;2023-11-21T13:26:56;16.10;99.90
36292;DHT22;22327;51.208;6.418;2023-11-21T13:29:58;16.10;99.90
36292;DHT22;22327;51.208;6.418;2023-11-21T13:32:59;16.10;99.90
36292;DHT22;22327;51.208;6.418;2023-11-21T13:36:02;16.10;99.90
36292;DHT22;22327;51.208;6.418;2023-11-21T13:39:07;16.10;99.90
36292;DHT22;22327;51.208;6.418;2023-11-21T13:42:15;16.00;99.90
36292;DHT22;22327;51.208;6.418;2023-11-21T13:45:17;16.10;99.90
36292;DHT22;22327;51.208;6.418;2023-11-21T13:48:18;16.20;99.90
36292;DHT22;22327;51.208;6.418;2023-11-21T13:51:25;16.20;99.90
36292;DHT22;22327;51.208;6.418;2023-11-21T13:54:39;16.20;99.90
36292;DHT22;22327;51.208;6.418;2023-11-21T13:57:40;16.00;99.90
36292;DHT22;22327;51.208;6.418;2023-11-21T14:00:40;16.00;99.90
36292;DHT22;22327;51.208;6.418;2023-11-21T14:03:48;16.00;99.90
36292;DHT22;22327;51.208;6.418;2023-11-21T14:06:54;15.90;99.90
36292;DHT22;22327;51.208;6.418;2023-11-21T14:09:55;15.80;99.90
36292;DHT22;22327;51.208;6.418;2023-11-21T14:12:56;15.70;99.90
36292;DHT22;22327;51.208;6.418;2023-11-21T14:15:56;15.60;99.90
36292;DHT22;22327;51.208;6.418;2023-11-21T14:19:01;15.50;99.90
36292;DHT22;22327;51.208;6.418;2023-11-21T14:22:10;15.40;99.90
36292;DHT22;22327;51.208;6.418;2023-11-21T14:25:11;15.40;99.90
36292;DHT22;22327;51.208;6.418;2023-11-21T14:28:12;15.40;99.90
36292;DHT22;22327;51.208;6.418;2023-11-21T14:31:13;15.40;99.90
36292;DHT22;22327;51.208;6.418;2023-11-21T14:34:17;15.40;99.90
36292;DHT22;22327;51.208;6.418;2023-11-21T14:37:18;15.40;99.90
36292;DHT22;22327;51.208;6.418;2023-11-21T14:40:21;15.30;99.90
36292;DHT22;22327;51.208;6.418;2023-11-21T14:43:24;15.20;99.90
36292;DHT22;22327;51.208;6.418;2023-11-21T14:46:26;15.10;99.90
36292;DHT22;22327;51.208;6.418;2023-11-21T14:49:26;15.00;99.90
36292;DHT22;22327;51.208;6.418;2023-11-21T14:52:31;14.90;99.90
36292;DHT22;22327;51.208;6.418;2023-11-21T14:55:35;14.90;99.90
36292;DHT22;22327;51.208;6.418;2023-11-21T14:58:57;14.80;99.90
36292;DHT22;22327;51.208;6.418;2023-11-21T15:02:00;14.80;99.90
36292;DHT22;22327;51.208;6.418;2023-11-21T15:05:14;14.80;99.90
36292;DHT22;22327;51.208;6.418;2023-11-21T15:08:16;14.80;99.90
36292;DHT22;22327;51.208;6.418;2023-11-21T15:11:30;14.80;99.90
36292;DHT22;22327;51.208;6.418;2023-11-21T15:14:31;14.70;99.90
36292;DHT22;22327;51.208;6.418;2023-11-21T15:17:32;14.60;99.90
36292;DHT22;22327;51.208;6.418;2023-11-21T15:20:33;14.50;99.90
36292;DHT22;22327;51.208;6.418;2023-11-21T15:23:33;14.40;99.90
36292;DHT22;22327;51.208;6.418;2023-11-21T15:26:35;14.30;99.90
36292;DHT22;22327;51.208;6.418;2023-11-21T15:29:35;14.20;99.90
36292;DHT22;22327;51.208;6.418;2023-11-21T15:32:36;14.20;99.90
36292;DHT22;22327;51.208;6.418;2023-11-21T15:35:36;14.10;99.90
36292;DHT22;22327;51.208;6.418;2023-11-21T15:38:38;14.00;99.90
36292;DHT22;22327;51.208;6.418;2023-11-21T15:41:39;14.00;99.90
36292;DHT22;22327;51.208;6.418;2023-11-21T15:44:40;14.00;99.90
36292;DHT22;22327;51.208;6.418;2023-11-21T15:47:41;13.90;99.90
36292;DHT22;22327;51.208;6.418;2023-11-21T15:50:42;13.90;99.90
36292;DHT22;22327;51.208;6.418;2023-11-21T15:53:44;13.90;99.90
36292;DHT22;22327;51.208;6.418;2023-11-21T15:56:44;13.90;99.90
36292;DHT22;22327;51.208;6.418;2023-11-21T15:59:45;13.90;99.90
36292;DHT22;22327;51.208;6.418;2023-11-21T16:02:46;13.80;99.90
36292;DHT22;22327;51.208;6.418;2023-11-21T16:05:46;13.90;99.90
36292;DHT22;22327;51.208;6.418;2023-11-21T16:08:47;13.90;99.90
36292;DHT22;22327;51.208;6.418;2023-11-21T16:11:51;13.90;99.90
36292;DHT22;22327;51.208;6.418;2023-11-21T16:14:56;13.90;99.90
36292;DHT22;22327;51.208;6.418;2023-11-21T16:17:57;13.80;99.90
36292;DHT22;22327;51.208;6.418;2023-11-21T16:20:58;13.70;99.90
36292;DHT22;22327;51.208;6.418;2023-11-21T16:23:58;13.70;99.90
36292;DHT22;22327;51.208;6.418;2023-11-21T16:26:59;13.70;99.90
36292;DHT22;22327;51.208;6.418;2023-11-21T16:30:00;13.70;99.90
36292;DHT22;22327;51.208;6.418;2023-11-21T16:33:03;13.60;99.90
36292;DHT22;22327;51.208;6.418;2023-11-21T16:36:04;13.70;99.90
36292;DHT22;22327;51.208;6.418;2023-11-21T16:39:06;13.60;99.90
36292;DHT22;22327;51.208;6.418;2023-11-21T16:42:07;13.50;99.90
36292;DHT22;22327;51.208;6.418;2023-11-21T16:45:08;13.40;99.90
36292;DHT22;22327;51.208;6.418;2023-11-21T16:48:09;13.30;99.90
36292;DHT22;22327;51.208;6.418;2023-11-21T16:51:10;13.30;99.90
36292;DHT22;22327;51.208;6.418;2023-11-21T16:54:13;13.30;99.90
36292;DHT22;22327;51.208;6.418;2023-11-21T16:57:15;13.20;99.90
36292;DHT22;22327;51.208;6.418;2023-11-21T17:00:16;13.10;99.90
36292;DHT22;22327;51.208;6.418;2023-11-21T17:03:18;13.10;99.90
36292;DHT22;22327;51.208;6.418;2023-11-21T17:06:20;13.00;99.90
36292;DHT22;22327;51.208;6.418;2023-11-21T17:09:23;13.00;99.90
36292;DHT22;22327;51.208;6.418;2023-11-21T17:12:24;13.00;99.90
36292;DHT22;22327;51.208;6.418;2023-11-21T17:15:26;13.10;99.90
36292;DHT22;22327;51.208;6.418;2023-11-21T17:18:27;13.10;99.90
36292;DHT22;22327;51.208;6.418;2023-11-21T17:21:27;13.10;99.90
36292;DHT22;22327;51.208;6.418;2023-11-21T17:24:28;13.10;99.90
36292;DHT22;22327;51.208;6.418;2023-11-21T17:27:29;13.10;99.90
36292;DHT22;22327;51.208;6.418;2023-11-21T17:30:31;13.10;99.90
36292;DHT22;22327;51.208;6.418;2023-11-21T17:33:31;13.00;99.90
36292;DHT22;22327;51.208;6.418;2023-11-21T17:36:32;12.90;99.90
36292;DHT22;22327;51.208;6.418;2023-11-21T17:39:33;12.80;99.90
36292;DHT22;22327;51.208;6.418;2023-11-21T17:42:34;12.60;99.90
36292;DHT22;22327;51.208;6.418;2023-11-21T17:45:34;12.50;99.90
36292;DHT22;22327;51.208;6.418;2023-11-21T17:48:35;12.40;99.90
36292;DHT22;22327;51.208;6.418;2023-11-21T17:51:39;12.20;99.90
36292;DHT22;22327;51.208;6.418;2023-11-21T17:54:40;12.10;99.90
36292;DHT22;22327;51.208;6.418;2023-11-21T17:57:42;12.00;99.90
36292;DHT22;22327;51.208;6.418;2023-11-21T18:00:42;11.90;99.90
36292;DHT22;22327;51.208;6.418;2023-11-21T18:03:45;11.70;99.90
36292;DHT22;22327;51.208;6.418;2023-11-21T18:06:46;11.70;99.90
36292;DHT22;22327;51.208;6.418;2023-11-21T18:09:46;11.60;99.90
36292;DHT22;22327;51.208;6.418;2023-11-21T18:12:47;11.50;99.90
36292;DHT22;22327;51.208;6.418;2023-11-21T18:15:48;11.40;99.90
36292;DHT22;22327;51.208;6.418;2023-11-21T18:18:48;11.40;99.90
36292;DHT22;22327;51.208;6.418;2023-11-21T18:21:50;11.30;99.90
36292;DHT22;22327;51.208;6.418;2023-11-21T18:24:52;11.30;99.90
36292;DHT22;22327;51.208;6.418;2023-11-21T18:27:55;11.30;99.90
36292;DHT22;22327;51.208;6.418;2023-11-21T18:30:56;11.20;99.90
36292;DHT22;22327;51.208;6.418;2023-11-21T18:33:56;11.30;99.90
36292;DHT22;22327;51.208;6.418;2023-11-21T18:36:57;11.30;99.90
36292;DHT22;22327;51.208;6.418;2023-11-21T18:39:58;11.40;99.90
36292;DHT22;22327;51.208;6.418;2023-11-21T18:42:58;11.40;99.90
36292;DHT22;22327;51.208;6.418;2023-11-21T18:46:01;11.40;99.90
36292;DHT22;22327;51.208;6.418;2023-11-21T18:49:02;11.50;99.90
36292;DHT22;22327;51.208;6.418;2023-11-21T18:52:05;11.40;99.90
36292;DHT22;22327;51.208;6.418;2023-11-21T18:55:07;11.40;99.90
36292;DHT22;22327;51.208;6.418;2023-11-21T18:58:08;11.30;99.90
36292;DHT22;22327;51.208;6.418;2023-11-21T19:01:08;11.10;99.90
36292;DHT22;22327;51.208;6.418;2023-11-21T19:04:09;11.00;99.90
36292;DHT22;22327;51.208;6.418;2023-11-21T19:07:11;11.00;99.90
36292;DHT22;22327;51.208;6.418;2023-11-21T19:10:12;11.10;99.90
36292;DHT22;22327;51.208;6.418;2023-11-21T19:13:13;11.10;99.90
36292;DHT22;22327;51.208;6.418;2023-11-21T19:16:14;11.10;99.90